APJ155 RJBB-RJFF
Flight info
| Callsign | APJ155 |
|---|---|
| Flight time | 0h 59m |
| Altitude | 32000 |
| Route | MAIKO OSRIX GUMID SOUJA Y281 STOUT Y20 KIRIN |
| Aircraft | A320/M-SDE3FGHIRWY/LB1 |
Departure
| Time | 2026-04-29 08:03 |
|---|---|
| Airport | Kansai International Airport (RJBB) |
Arrival
| Time | 2026-04-29 09:02 |
|---|---|
| Airport | Fukuoka Airport (RJFF) |
| Time | Latitude | Longitude | Altitude | Speed | Heading |
|---|---|---|---|---|---|
| 2026-04-29 07:45 | 34.43661 | 135.22959 | 29 ft | 0 kts | 82° |
| 2026-04-29 07:55 | 34.43657 | 135.22965 | 29 ft | 1 kts | 124° |
| 2026-04-29 07:55 | 34.43646 | 135.22954 | 29 ft | 2 kts | 242° |
| 2026-04-29 07:55 | 34.43638 | 135.22924 | 29 ft | 5 kts | 252° |
| 2026-04-29 07:56 | 34.43628 | 135.22889 | 29 ft | 5 kts | 252° |
| 2026-04-29 07:56 | 34.43632 | 135.22844 | 29 ft | 5 kts | 306° |
| 2026-04-29 07:56 | 34.43661 | 135.22815 | 29 ft | 5 kts | 321° |
| 2026-04-29 07:56 | 34.43686 | 135.22790 | 29 ft | 4 kts | 321° |
| 2026-04-29 07:57 | 34.43711 | 135.22766 | 29 ft | 6 kts | 321° |
| 2026-04-29 07:57 | 34.43753 | 135.22723 | 29 ft | 8 kts | 317° |
| 2026-04-29 07:57 | 34.43752 | 135.22641 | 29 ft | 12 kts | 245° |
| 2026-04-29 07:57 | 34.43779 | 135.22560 | 29 ft | 11 kts | 320° |
| 2026-04-29 07:58 | 34.43849 | 135.22487 | 29 ft | 13 kts | 304° |
| 2026-04-29 07:58 | 34.43815 | 135.22391 | 29 ft | 14 kts | 231° |
| 2026-04-29 07:58 | 34.43748 | 135.22291 | 29 ft | 17 kts | 231° |
| 2026-04-29 07:58 | 34.43670 | 135.22176 | 29 ft | 19 kts | 231° |
| 2026-04-29 07:59 | 34.43583 | 135.22046 | 29 ft | 21 kts | 231° |
| 2026-04-29 07:59 | 34.43486 | 135.21901 | 29 ft | 23 kts | 231° |
| 2026-04-29 07:59 | 34.43382 | 135.21746 | 29 ft | 25 kts | 231° |
| 2026-04-29 07:59 | 34.43270 | 135.21581 | 29 ft | 26 kts | 231° |
| 2026-04-29 08:00 | 34.43164 | 135.21422 | 29 ft | 24 kts | 231° |
| 2026-04-29 08:00 | 34.43060 | 135.21267 | 29 ft | 23 kts | 231° |
| 2026-04-29 08:00 | 34.42953 | 135.21109 | 29 ft | 25 kts | 231° |
| 2026-04-29 08:00 | 34.42841 | 135.20942 | 29 ft | 26 kts | 231° |
| 2026-04-29 08:01 | 34.42754 | 135.20811 | 29 ft | 13 kts | 234° |
| 2026-04-29 08:01 | 34.42774 | 135.20726 | 29 ft | 11 kts | 324° |
| 2026-04-29 08:01 | 34.42837 | 135.20660 | 29 ft | 13 kts | 320° |
| 2026-04-29 08:01 | 34.42904 | 135.20689 | 24 ft | 10 kts | 51° |
| 2026-04-29 08:02 | 34.42914 | 135.20705 | 24 ft | 0 kts | 51° |
| 2026-04-29 08:02 | 34.42993 | 135.20822 | 28 ft | 51 kts | 51° |
| 2026-04-29 08:02 | 34.43373 | 135.21388 | 38 ft | 119 kts | 51° |
| 2026-04-29 08:03 | 34.44016 | 135.22346 | 38 ft | 171 kts | 51° |
| 2026-04-29 08:03 | 34.44787 | 135.23491 | 657 ft | 176 kts | 47° |
| 2026-04-29 08:03 | 34.45855 | 135.24145 | 1414 ft | 178 kts | 359° |
| 2026-04-29 08:03 | 34.47031 | 135.23644 | 1976 ft | 190 kts | 326° |
| 2026-04-29 08:04 | 34.48189 | 135.22670 | 2339 ft | 215 kts | 323° |
| 2026-04-29 08:04 | 34.49462 | 135.21524 | 2819 ft | 241 kts | 323° |
| 2026-04-29 08:04 | 34.50881 | 135.20271 | 3416 ft | 261 kts | 323° |
| 2026-04-29 08:04 | 34.52381 | 135.18982 | 4335 ft | 267 kts | 324° |
| 2026-04-29 08:05 | 34.53921 | 135.17688 | 5311 ft | 271 kts | 325° |
| 2026-04-29 08:05 | 34.55493 | 135.16388 | 6288 ft | 275 kts | 325° |
| 2026-04-29 08:05 | 34.57073 | 135.15092 | 7458 ft | 269 kts | 322° |
| 2026-04-29 08:05 | 34.58592 | 135.13801 | 8618 ft | 264 kts | 315° |
| 2026-04-29 08:06 | 34.59814 | 135.12177 | 9629 ft | 259 kts | 300° |
| 2026-04-29 08:06 | 34.60612 | 135.10236 | 10557 ft | 257 kts | 285° |
| 2026-04-29 08:06 | 34.60953 | 135.08118 | 11432 ft | 257 kts | 272° |
| 2026-04-29 08:06 | 34.60997 | 135.05876 | 11878 ft | 277 kts | 270° |
| 2026-04-29 08:07 | 34.61034 | 135.03459 | 12338 ft | 293 kts | 270° |
| 2026-04-29 08:07 | 34.61075 | 135.00962 | 13092 ft | 298 kts | 270° |
| 2026-04-29 08:07 | 34.61139 | 134.98433 | 13928 ft | 302 kts | 271° |
| 2026-04-29 08:07 | 34.61277 | 134.95880 | 14652 ft | 305 kts | 273° |
| 2026-04-29 08:08 | 34.61456 | 134.93308 | 15377 ft | 307 kts | 273° |
| 2026-04-29 08:08 | 34.61649 | 134.90718 | 16106 ft | 309 kts | 273° |
| 2026-04-29 08:08 | 34.61842 | 134.88111 | 16843 ft | 311 kts | 272° |
| 2026-04-29 08:08 | 34.62029 | 134.85484 | 17570 ft | 314 kts | 272° |
| 2026-04-29 08:09 | 34.62208 | 134.82836 | 18274 ft | 316 kts | 272° |
| 2026-04-29 08:09 | 34.62384 | 134.80166 | 18875 ft | 318 kts | 271° |
| 2026-04-29 08:09 | 34.62509 | 134.77476 | 19455 ft | 320 kts | 266° |
| 2026-04-29 08:09 | 34.62349 | 134.74779 | 20027 ft | 322 kts | 264° |
| 2026-04-29 08:10 | 34.62164 | 134.72063 | 20612 ft | 324 kts | 264° |
| 2026-04-29 08:10 | 34.61975 | 134.69329 | 21177 ft | 326 kts | 264° |
| 2026-04-29 08:10 | 34.61785 | 134.66572 | 21742 ft | 329 kts | 264° |
| 2026-04-29 08:10 | 34.61596 | 134.63795 | 22283 ft | 331 kts | 264° |
| 2026-04-29 08:11 | 34.61406 | 134.60996 | 22820 ft | 334 kts | 264° |
| 2026-04-29 08:11 | 34.61216 | 134.58178 | 23362 ft | 336 kts | 264° |
| 2026-04-29 08:11 | 34.61023 | 134.55333 | 23823 ft | 340 kts | 264° |
| 2026-04-29 08:11 | 34.60824 | 134.52464 | 24249 ft | 342 kts | 264° |
| 2026-04-29 08:12 | 34.60622 | 134.49578 | 24692 ft | 344 kts | 264° |
| 2026-04-29 08:12 | 34.60418 | 134.46679 | 25135 ft | 346 kts | 264° |
| 2026-04-29 08:12 | 34.60213 | 134.43764 | 25566 ft | 348 kts | 264° |
| 2026-04-29 08:12 | 34.60008 | 134.40833 | 25995 ft | 349 kts | 264° |
| 2026-04-29 08:13 | 34.59802 | 134.37888 | 26425 ft | 351 kts | 264° |
| 2026-04-29 08:13 | 34.59594 | 134.34924 | 26846 ft | 353 kts | 264° |
| 2026-04-29 08:13 | 34.59382 | 134.31948 | 27252 ft | 355 kts | 264° |
| 2026-04-29 08:13 | 34.59168 | 134.28955 | 27672 ft | 357 kts | 264° |
| 2026-04-29 08:14 | 34.58952 | 134.25945 | 28080 ft | 359 kts | 264° |
| 2026-04-29 08:14 | 34.58734 | 134.22917 | 28488 ft | 361 kts | 264° |
| 2026-04-29 08:14 | 34.58516 | 134.19875 | 28891 ft | 363 kts | 264° |
| 2026-04-29 08:14 | 34.58297 | 134.16813 | 29286 ft | 365 kts | 264° |
| 2026-04-29 08:15 | 34.58074 | 134.13731 | 29680 ft | 367 kts | 264° |
| 2026-04-29 08:15 | 34.57849 | 134.10637 | 30069 ft | 369 kts | 264° |
| 2026-04-29 08:15 | 34.57623 | 134.07521 | 30400 ft | 371 kts | 264° |
| 2026-04-29 08:15 | 34.57530 | 134.04380 | 30707 ft | 375 kts | 271° |
| 2026-04-29 08:16 | 34.57911 | 134.01235 | 30999 ft | 380 kts | 278° |
| 2026-04-29 08:16 | 34.58471 | 133.98092 | 31285 ft | 382 kts | 278° |
| 2026-04-29 08:16 | 34.59034 | 133.94939 | 31578 ft | 383 kts | 278° |
| 2026-04-29 08:16 | 34.59599 | 133.91771 | 31904 ft | 384 kts | 278° |
| 2026-04-29 08:17 | 34.60160 | 133.88605 | 32060 ft | 382 kts | 278° |
| 2026-04-29 08:17 | 34.60710 | 133.85518 | 32088 ft | 365 kts | 278° |
| 2026-04-29 08:17 | 34.61238 | 133.82556 | 32088 ft | 354 kts | 278° |
| 2026-04-29 08:17 | 34.61751 | 133.79656 | 32087 ft | 350 kts | 278° |
| 2026-04-29 08:18 | 34.62533 | 133.73877 | 32091 ft | 344 kts | 268° |
| 2026-04-29 08:18 | 34.61849 | 133.68161 | 32092 ft | 343 kts | 259° |
| 2026-04-29 08:19 | 34.60963 | 133.62471 | 32099 ft | 343 kts | 259° |
| 2026-04-29 08:19 | 34.60081 | 133.56774 | 32100 ft | 343 kts | 259° |
| 2026-04-29 08:20 | 34.59191 | 133.51080 | 32098 ft | 343 kts | 259° |
| 2026-04-29 08:20 | 34.58301 | 133.45389 | 32100 ft | 343 kts | 259° |
| 2026-04-29 08:21 | 34.57416 | 133.39698 | 32098 ft | 343 kts | 259° |
| 2026-04-29 08:21 | 34.56528 | 133.34010 | 32102 ft | 343 kts | 259° |
| 2026-04-29 08:22 | 34.55628 | 133.28328 | 32096 ft | 343 kts | 259° |
| 2026-04-29 08:22 | 34.54730 | 133.22647 | 32096 ft | 343 kts | 259° |
| 2026-04-29 08:23 | 34.53832 | 133.16964 | 32095 ft | 343 kts | 259° |
| 2026-04-29 08:23 | 34.52931 | 133.11284 | 32093 ft | 343 kts | 259° |
| 2026-04-29 08:24 | 34.52026 | 133.05603 | 32094 ft | 343 kts | 259° |
| 2026-04-29 08:24 | 34.51266 | 133.00840 | 32095 ft | 343 kts | 259° |
| 2026-04-29 08:25 | 34.50358 | 132.95160 | 32093 ft | 343 kts | 259° |
| 2026-04-29 08:25 | 34.49442 | 132.89477 | 32094 ft | 343 kts | 259° |
| 2026-04-29 08:26 | 34.48517 | 132.83797 | 32091 ft | 344 kts | 259° |
| 2026-04-29 08:26 | 34.47591 | 132.78119 | 32091 ft | 344 kts | 259° |
| 2026-04-29 08:27 | 34.46677 | 132.72431 | 32094 ft | 344 kts | 259° |
| 2026-04-29 08:27 | 34.45755 | 132.66747 | 32097 ft | 344 kts | 259° |
| 2026-04-29 08:28 | 34.44825 | 132.61065 | 32100 ft | 344 kts | 259° |
| 2026-04-29 08:28 | 34.43892 | 132.55380 | 32102 ft | 344 kts | 259° |
| 2026-04-29 08:29 | 34.42964 | 132.49695 | 32102 ft | 344 kts | 259° |
| 2026-04-29 08:29 | 34.42026 | 132.44009 | 32094 ft | 344 kts | 259° |
| 2026-04-29 08:30 | 34.40612 | 132.35489 | 32091 ft | 344 kts | 259° |
| 2026-04-29 08:31 | 34.39715 | 132.29808 | 32087 ft | 344 kts | 259° |
| 2026-04-29 08:31 | 34.38837 | 132.24105 | 32090 ft | 345 kts | 259° |
| 2026-04-29 08:32 | 34.37951 | 132.18400 | 32089 ft | 345 kts | 259° |
| 2026-04-29 08:32 | 34.37058 | 132.12697 | 32088 ft | 345 kts | 259° |
| 2026-04-29 08:33 | 34.36164 | 132.07012 | 32087 ft | 344 kts | 259° |
| 2026-04-29 08:33 | 34.35267 | 132.01319 | 32087 ft | 344 kts | 259° |
| 2026-04-29 08:34 | 34.34368 | 131.95631 | 32096 ft | 345 kts | 259° |
| 2026-04-29 08:34 | 34.33469 | 131.89938 | 32094 ft | 345 kts | 259° |
| 2026-04-29 08:35 | 34.32561 | 131.84239 | 32095 ft | 345 kts | 259° |
| 2026-04-29 08:35 | 34.31644 | 131.78541 | 32101 ft | 345 kts | 259° |
| 2026-04-29 08:36 | 34.30726 | 131.72846 | 32104 ft | 345 kts | 259° |
| 2026-04-29 08:36 | 34.29807 | 131.67138 | 32114 ft | 352 kts | 259° |
| 2026-04-29 08:37 | 34.28855 | 131.61189 | 31534 ft | 362 kts | 259° |
| 2026-04-29 08:37 | 34.28377 | 131.58217 | 30461 ft | 359 kts | 258° |
| 2026-04-29 08:37 | 34.27903 | 131.55282 | 29817 ft | 350 kts | 258° |
| 2026-04-29 08:37 | 34.27440 | 131.52432 | 29445 ft | 341 kts | 258° |
| 2026-04-29 08:38 | 34.26984 | 131.49645 | 29039 ft | 335 kts | 258° |
| 2026-04-29 08:38 | 34.26538 | 131.46913 | 28666 ft | 328 kts | 258° |
| 2026-04-29 08:38 | 34.26099 | 131.44239 | 28292 ft | 321 kts | 258° |
| 2026-04-29 08:38 | 34.25671 | 131.41618 | 27927 ft | 315 kts | 258° |
| 2026-04-29 08:39 | 34.25251 | 131.39048 | 27571 ft | 309 kts | 258° |
| 2026-04-29 08:39 | 34.24838 | 131.36520 | 27218 ft | 304 kts | 258° |
| 2026-04-29 08:39 | 34.24435 | 131.34034 | 26875 ft | 299 kts | 258° |
| 2026-04-29 08:39 | 34.24039 | 131.31592 | 26533 ft | 294 kts | 258° |
| 2026-04-29 08:40 | 34.23644 | 131.29190 | 26193 ft | 289 kts | 258° |
| 2026-04-29 08:40 | 34.23252 | 131.26820 | 25856 ft | 287 kts | 257° |
| 2026-04-29 08:40 | 34.22864 | 131.24462 | 25500 ft | 285 kts | 258° |
| 2026-04-29 08:40 | 34.22478 | 131.22120 | 25162 ft | 283 kts | 257° |
| 2026-04-29 08:41 | 34.22092 | 131.19790 | 24804 ft | 282 kts | 257° |
| 2026-04-29 08:41 | 34.21709 | 131.17478 | 24452 ft | 280 kts | 257° |
| 2026-04-29 08:41 | 34.21326 | 131.15177 | 24092 ft | 279 kts | 257° |
| 2026-04-29 08:41 | 34.20946 | 131.12886 | 23735 ft | 278 kts | 257° |
| 2026-04-29 08:42 | 34.20564 | 131.10604 | 23326 ft | 277 kts | 257° |
| 2026-04-29 08:42 | 34.20184 | 131.08331 | 22950 ft | 276 kts | 257° |
| 2026-04-29 08:42 | 34.19805 | 131.06066 | 22601 ft | 274 kts | 257° |
| 2026-04-29 08:42 | 34.19427 | 131.03814 | 22245 ft | 273 kts | 257° |
| 2026-04-29 08:43 | 34.19005 | 131.01588 | 21871 ft | 272 kts | 252° |
| 2026-04-29 08:43 | 34.18303 | 130.99471 | 21458 ft | 272 kts | 248° |
| 2026-04-29 08:43 | 34.17557 | 130.97379 | 21050 ft | 271 kts | 248° |
| 2026-04-29 08:43 | 34.16813 | 130.95280 | 20647 ft | 272 kts | 248° |
| 2026-04-29 08:44 | 34.16071 | 130.93186 | 20243 ft | 271 kts | 248° |
| 2026-04-29 08:44 | 34.15326 | 130.91089 | 19846 ft | 272 kts | 248° |
| 2026-04-29 08:44 | 34.14581 | 130.88994 | 19451 ft | 272 kts | 248° |
| 2026-04-29 08:44 | 34.13834 | 130.86896 | 19064 ft | 272 kts | 248° |
| 2026-04-29 08:45 | 34.13002 | 130.84844 | 18671 ft | 274 kts | 240° |
| 2026-04-29 08:45 | 34.11729 | 130.83106 | 18261 ft | 281 kts | 225° |
| 2026-04-29 08:45 | 34.10035 | 130.81859 | 17840 ft | 291 kts | 210° |
| 2026-04-29 08:45 | 34.08049 | 130.81214 | 17425 ft | 299 kts | 199° |
| 2026-04-29 08:46 | 34.06005 | 130.80735 | 17015 ft | 299 kts | 199° |
| 2026-04-29 08:46 | 34.03961 | 130.80264 | 16621 ft | 299 kts | 199° |
| 2026-04-29 08:46 | 34.01915 | 130.79792 | 16211 ft | 300 kts | 199° |
| 2026-04-29 08:46 | 33.99866 | 130.79314 | 15813 ft | 300 kts | 198° |
| 2026-04-29 08:47 | 33.97815 | 130.78833 | 15418 ft | 301 kts | 198° |
| 2026-04-29 08:47 | 33.95760 | 130.78352 | 15018 ft | 301 kts | 198° |
| 2026-04-29 08:47 | 33.93701 | 130.77869 | 14627 ft | 302 kts | 198° |
| 2026-04-29 08:47 | 33.91637 | 130.77381 | 14226 ft | 302 kts | 198° |
| 2026-04-29 08:48 | 33.89574 | 130.76892 | 13816 ft | 302 kts | 197° |
| 2026-04-29 08:48 | 33.87510 | 130.76405 | 13386 ft | 302 kts | 197° |
| 2026-04-29 08:48 | 33.85450 | 130.75920 | 12992 ft | 301 kts | 197° |
| 2026-04-29 08:48 | 33.83395 | 130.75438 | 12583 ft | 301 kts | 197° |
| 2026-04-29 08:49 | 33.81342 | 130.74954 | 12179 ft | 301 kts | 197° |
| 2026-04-29 08:49 | 33.79309 | 130.74479 | 11986 ft | 293 kts | 197° |
| 2026-04-29 08:49 | 33.77326 | 130.74019 | 11600 ft | 288 kts | 197° |
| 2026-04-29 08:49 | 33.75370 | 130.73563 | 11010 ft | 284 kts | 197° |
| 2026-04-29 08:50 | 33.73466 | 130.73121 | 10592 ft | 274 kts | 196° |
| 2026-04-29 08:50 | 33.71615 | 130.72692 | 10213 ft | 270 kts | 196° |
| 2026-04-29 08:50 | 33.69763 | 130.72261 | 9929 ft | 273 kts | 196° |
| 2026-04-29 08:50 | 33.67882 | 130.71821 | 9693 ft | 277 kts | 195° |
| 2026-04-29 08:51 | 33.65992 | 130.71378 | 9477 ft | 277 kts | 195° |
| 2026-04-29 08:51 | 33.64104 | 130.70938 | 9250 ft | 276 kts | 195° |
| 2026-04-29 08:51 | 33.62221 | 130.70499 | 9028 ft | 275 kts | 195° |
| 2026-04-29 08:51 | 33.60342 | 130.70064 | 8805 ft | 275 kts | 195° |
| 2026-04-29 08:52 | 33.58463 | 130.69630 | 8576 ft | 275 kts | 195° |
| 2026-04-29 08:52 | 33.56590 | 130.69198 | 8351 ft | 274 kts | 194° |
| 2026-04-29 08:52 | 33.54720 | 130.68765 | 8130 ft | 273 kts | 194° |
| 2026-04-29 08:52 | 33.52856 | 130.68332 | 7906 ft | 272 kts | 194° |
| 2026-04-29 08:53 | 33.50996 | 130.67900 | 7686 ft | 272 kts | 194° |
| 2026-04-29 08:53 | 33.49112 | 130.67477 | 7456 ft | 272 kts | 191° |
| 2026-04-29 08:53 | 33.47237 | 130.67446 | 7234 ft | 276 kts | 176° |
| 2026-04-29 08:53 | 33.45338 | 130.67903 | 7001 ft | 272 kts | 171° |
| 2026-04-29 08:54 | 33.43519 | 130.68400 | 6769 ft | 264 kts | 171° |
| 2026-04-29 08:54 | 33.41749 | 130.68880 | 6542 ft | 257 kts | 171° |
| 2026-04-29 08:54 | 33.40029 | 130.69345 | 6332 ft | 250 kts | 171° |
| 2026-04-29 08:54 | 33.38347 | 130.69624 | 6111 ft | 238 kts | 187° |
| 2026-04-29 08:55 | 33.36810 | 130.69116 | 5919 ft | 225 kts | 212° |
| 2026-04-29 08:55 | 33.35639 | 130.67943 | 5638 ft | 218 kts | 234° |
| 2026-04-29 08:55 | 33.34869 | 130.66403 | 5420 ft | 216 kts | 242° |
| 2026-04-29 08:55 | 33.34149 | 130.64844 | 5211 ft | 217 kts | 246° |
| 2026-04-29 08:56 | 33.33938 | 130.63072 | 5009 ft | 216 kts | 281° |
| 2026-04-29 08:56 | 33.34630 | 130.61499 | 4813 ft | 219 kts | 316° |
| 2026-04-29 08:56 | 33.35923 | 130.60540 | 4624 ft | 219 kts | 330° |
| 2026-04-29 08:56 | 33.37221 | 130.59650 | 4483 ft | 211 kts | 328° |
| 2026-04-29 08:57 | 33.38475 | 130.58782 | 4306 ft | 207 kts | 329° |
| 2026-04-29 08:57 | 33.39721 | 130.57931 | 4057 ft | 205 kts | 329° |
| 2026-04-29 08:57 | 33.40942 | 130.57101 | 3795 ft | 198 kts | 330° |
| 2026-04-29 08:57 | 33.42118 | 130.56301 | 3533 ft | 192 kts | 331° |
| 2026-04-29 08:58 | 33.43260 | 130.55523 | 3278 ft | 186 kts | 331° |
| 2026-04-29 08:58 | 33.44372 | 130.54767 | 3030 ft | 182 kts | 332° |
| 2026-04-29 08:58 | 33.45457 | 130.54028 | 2800 ft | 176 kts | 332° |
| 2026-04-29 08:58 | 33.46508 | 130.53312 | 2549 ft | 171 kts | 332° |
| 2026-04-29 08:59 | 33.47524 | 130.52620 | 2324 ft | 164 kts | 332° |
| 2026-04-29 08:59 | 33.48481 | 130.51968 | 2120 ft | 151 kts | 333° |
| 2026-04-29 08:59 | 33.49356 | 130.51371 | 1917 ft | 141 kts | 333° |
| 2026-04-29 08:59 | 33.50195 | 130.50800 | 1734 ft | 137 kts | 333° |
| 2026-04-29 09:00 | 33.51014 | 130.50242 | 1539 ft | 135 kts | 333° |
| 2026-04-29 09:00 | 33.51825 | 130.49689 | 1364 ft | 134 kts | 332° |
| 2026-04-29 09:00 | 33.52629 | 130.49141 | 1176 ft | 133 kts | 333° |
| 2026-04-29 09:00 | 33.53432 | 130.48594 | 1007 ft | 133 kts | 332° |
| 2026-04-29 09:01 | 33.54231 | 130.48049 | 825 ft | 132 kts | 333° |
| 2026-04-29 09:01 | 33.55029 | 130.47504 | 647 ft | 132 kts | 332° |
| 2026-04-29 09:01 | 33.55817 | 130.46967 | 470 ft | 129 kts | 331° |
| 2026-04-29 09:01 | 33.56330 | 130.46617 | 334 ft | 128 kts | 331° |
| 2026-04-29 09:02 | 33.57096 | 130.46090 | 180 ft | 127 kts | 331° |
| 2026-04-29 09:02 | 33.57859 | 130.45567 | 46 ft | 123 kts | 333° |
| 2026-04-29 09:02 | 33.58479 | 130.45145 | 33 ft | 78 kts | 330° |
| 2026-04-29 09:02 | 33.58762 | 130.44959 | 31 ft | 28 kts | 341° |
| 2026-04-29 09:03 | 33.58924 | 130.44937 | 29 ft | 13 kts | 360° |
| 2026-04-29 09:03 | 33.59012 | 130.44937 | 26 ft | 14 kts | 0° |
| 2026-04-29 09:03 | 33.59097 | 130.44938 | 27 ft | 10 kts | 359° |
| 2026-04-29 09:03 | 33.59166 | 130.44903 | 28 ft | 12 kts | 331° |
| 2026-04-29 09:04 | 33.59211 | 130.44872 | 26 ft | 4 kts | 329° |
| 2026-04-29 09:04 | 33.59229 | 130.44860 | 25 ft | 2 kts | 330° |
| 2026-04-29 09:04 | 33.59239 | 130.44853 | 25 ft | 1 kts | 330° |
| 2026-04-29 09:04 | 33.59252 | 130.44844 | 25 ft | 6 kts | 330° |
| 2026-04-29 09:05 | 33.59288 | 130.44820 | 26 ft | 6 kts | 330° |
| 2026-04-29 09:05 | 33.59316 | 130.44801 | 24 ft | 3 kts | 331° |
| 2026-04-29 09:05 | 33.59321 | 130.44798 | 26 ft | 0 kts | 331° |
| 2026-04-29 09:05 | 33.59329 | 130.44792 | 25 ft | 2 kts | 331° |
| 2026-04-29 09:06 | 33.59352 | 130.44777 | 27 ft | 5 kts | 331° |
| 2026-04-29 09:06 | 33.59393 | 130.44750 | 28 ft | 7 kts | 330° |
| 2026-04-29 09:06 | 33.59433 | 130.44720 | 27 ft | 7 kts | 328° |
| 2026-04-29 09:06 | 33.59488 | 130.44681 | 27 ft | 11 kts | 329° |
| 2026-04-29 09:07 | 33.59554 | 130.44653 | 27 ft | 10 kts | 13° |
| 2026-04-29 09:07 | 33.59575 | 130.44670 | 25 ft | 0 kts | 44° |
| 2026-04-29 09:07 | 33.59583 | 130.44679 | 25 ft | 6 kts | 42° |
| 2026-04-29 09:07 | 33.59647 | 130.44673 | 29 ft | 14 kts | 332° |
| 2026-04-29 09:08 | 33.59750 | 130.44603 | 28 ft | 18 kts | 330° |
| 2026-04-29 09:08 | 33.59863 | 130.44526 | 29 ft | 16 kts | 330° |
| 2026-04-29 09:08 | 33.59954 | 130.44464 | 28 ft | 9 kts | 330° |
| 2026-04-29 09:08 | 33.59986 | 130.44467 | 26 ft | 4 kts | 42° |
| 2026-04-29 09:09 | 33.60008 | 130.44507 | 25 ft | 4 kts | 60° |
| 2026-04-29 09:09 | 33.60015 | 130.44523 | 25 ft | 0 kts | 59° |